createdAt,value
2018-06-27T00:01:58.565Z,14.70
2018-06-27T00:04:28.191Z,14.60
2018-06-27T00:06:58.706Z,14.60
2018-06-27T00:12:07.060Z,14.50
2018-06-27T00:14:36.694Z,14.40
2018-06-27T00:17:06.412Z,14.30
2018-06-27T00:19:36.111Z,14.30
2018-06-27T00:22:07.976Z,14.30
2018-06-27T00:24:38.993Z,14.30
2018-06-27T00:27:08.606Z,14.20
2018-06-27T00:29:38.139Z,14.20
2018-06-27T00:34:36.997Z,14.10
2018-06-27T00:37:07.233Z,14.00
2018-06-27T00:39:36.801Z,14.10
2018-06-27T00:42:07.102Z,14.00
2018-06-27T00:44:36.725Z,14.00
2018-06-27T00:47:06.966Z,13.90
2018-06-27T00:49:36.584Z,13.90
2018-06-27T00:52:06.821Z,13.80
2018-06-27T00:54:36.433Z,13.80
2018-06-27T00:57:06.772Z,13.80
2018-06-27T00:59:36.398Z,13.70
2018-06-27T01:04:36.216Z,13.70
2018-06-27T01:07:06.798Z,13.60
2018-06-27T01:09:36.402Z,13.70
2018-06-27T01:12:06.411Z,13.60
2018-06-27T01:14:36.031Z,13.60
2018-06-27T01:17:06.057Z,13.60
2018-06-27T01:19:35.671Z,13.50
2018-06-27T01:22:05.926Z,13.50
2018-06-27T01:24:35.528Z,13.50
2018-06-27T01:27:05.949Z,13.40
2018-06-27T01:29:35.605Z,13.40
2018-06-27T01:32:05.869Z,13.40
2018-06-27T01:34:35.487Z,13.40
2018-06-27T01:37:05.110Z,13.40
2018-06-27T01:39:34.758Z,13.30
2018-06-27T01:42:04.358Z,13.20
2018-06-27T01:44:34.023Z,13.30
2018-06-27T01:47:03.617Z,13.30
2018-06-27T01:49:33.221Z,13.30
2018-06-27T01:52:02.865Z,13.30
2018-06-27T01:54:32.505Z,13.30
2018-06-27T01:57:02.714Z,13.20
2018-06-27T01:59:32.311Z,13.20
2018-06-27T02:02:02.686Z,13.20
2018-06-27T02:04:32.283Z,13.20
2018-06-27T02:07:02.870Z,13.20
2018-06-27T02:09:32.458Z,13.20
2018-06-27T02:12:02.388Z,13.20
2018-06-27T02:14:31.971Z,13.20
2018-06-27T02:17:01.696Z,13.20
2018-06-27T02:19:31.322Z,13.10
2018-06-27T02:22:00.909Z,13.10
2018-06-27T02:24:30.494Z,13.10
2018-06-27T02:27:00.121Z,13.00
2018-06-27T02:29:29.682Z,13.00
2018-06-27T02:31:59.280Z,13.10
2018-06-27T02:34:28.891Z,13.10
2018-06-27T02:36:58.506Z,13.10
2018-06-27T02:39:28.192Z,13.10
2018-06-27T02:41:57.753Z,13.10
2018-06-27T02:44:27.340Z,13.00
2018-06-27T02:46:57.018Z,13.00
2018-06-27T02:49:26.635Z,13.00
2018-06-27T02:51:56.393Z,13.10
2018-06-27T02:54:26.039Z,13.10
2018-06-27T02:56:55.624Z,13.00
2018-06-27T02:59:25.247Z,13.00
2018-06-27T03:01:54.844Z,13.00
2018-06-27T03:04:24.456Z,13.00
2018-06-27T03:06:54.135Z,13.00
2018-06-27T03:09:23.758Z,13.00
2018-06-27T03:11:53.382Z,13.00
2018-06-27T03:14:23.049Z,13.00
2018-06-27T03:16:52.740Z,13.10
2018-06-27T03:19:22.325Z,13.10
2018-06-27T03:21:51.908Z,13.10
2018-06-27T03:24:21.540Z,13.20
2018-06-27T03:26:51.166Z,13.20
2018-06-27T03:31:50.166Z,13.20
2018-06-27T03:34:19.828Z,13.20
2018-06-27T03:36:50.103Z,13.30
2018-06-27T03:39:19.755Z,13.40
2018-06-27T03:41:49.414Z,13.50
2018-06-27T03:44:18.963Z,13.70
2018-06-27T03:46:48.701Z,13.80
2018-06-27T03:49:18.333Z,13.90
2018-06-27T03:51:47.958Z,14.00
2018-06-27T03:54:17.555Z,14.10
2018-06-27T03:56:47.124Z,14.30
2018-06-27T03:59:16.734Z,14.40
2018-06-27T04:01:46.795Z,14.60
2018-06-27T04:04:16.543Z,14.70
2018-06-27T04:06:46.249Z,14.90
2018-06-27T04:09:15.817Z,15.00
2018-06-27T04:11:45.892Z,15.20
2018-06-27T04:14:15.492Z,15.40
2018-06-27T04:16:45.946Z,15.50
2018-06-27T04:19:15.540Z,15.60
2018-06-27T04:21:45.865Z,15.60
2018-06-27T04:24:26.298Z,15.70
2018-06-27T04:27:08.636Z,15.80
2018-06-27T04:29:51.639Z,16.00
2018-06-27T04:32:33.117Z,16.20
2018-06-27T04:35:13.297Z,16.40
2018-06-27T04:37:53.871Z,16.50
2018-06-27T04:40:35.462Z,16.70
2018-06-27T04:43:13.916Z,16.80
2018-06-27T04:45:50.686Z,17.00
2018-06-27T04:48:20.615Z,17.20
2018-06-27T04:50:50.337Z,17.30
2018-06-27T04:53:19.972Z,17.30
2018-06-27T04:55:50.000Z,17.50
2018-06-27T04:58:19.679Z,17.70
2018-06-27T05:00:49.302Z,17.80
2018-06-27T05:03:18.989Z,18.10
2018-06-27T05:05:48.652Z,18.30
2018-06-27T05:08:18.621Z,18.10
2018-06-27T05:10:48.728Z,18.20
2018-06-27T05:13:18.415Z,18.20
2018-06-27T05:15:48.030Z,18.20
2018-06-27T05:18:17.673Z,18.40
2018-06-27T05:20:47.273Z,18.70
2018-06-27T05:23:16.890Z,18.90
2018-06-27T05:25:47.067Z,19.00
2018-06-27T05:28:16.958Z,19.30
2018-06-27T05:30:46.610Z,19.60
2018-06-27T05:33:16.487Z,19.70
2018-06-27T05:35:46.137Z,19.80
2018-06-27T05:38:16.903Z,19.70
2018-06-27T05:40:47.392Z,19.70
2018-06-27T05:43:17.255Z,20.10
2018-06-27T05:45:47.051Z,20.20
2018-06-27T05:48:17.165Z,20.20
2018-06-27T05:50:46.798Z,20.30
2018-06-27T05:53:16.955Z,20.40
2018-06-27T05:55:47.423Z,20.30
2018-06-27T05:58:17.717Z,20.30
2018-06-27T06:00:47.233Z,20.50
2018-06-27T06:03:17.418Z,20.80
2018-06-27T06:05:47.995Z,21.00
2018-06-27T06:08:18.369Z,21.10
2018-06-27T06:10:48.462Z,21.10
2018-06-27T06:13:18.660Z,20.80
2018-06-27T06:15:48.270Z,20.90
2018-06-27T06:18:18.715Z,20.80
2018-06-27T06:20:48.336Z,21.00
2018-06-27T06:23:19.020Z,20.70
2018-06-27T06:25:49.150Z,20.90
2018-06-27T06:28:19.134Z,21.20
2018-06-27T06:30:48.741Z,21.50
2018-06-27T06:33:18.985Z,22.10
2018-06-27T06:35:48.619Z,21.50
2018-06-27T06:38:19.126Z,21.10
2018-06-27T06:40:49.142Z,21.00
2018-06-27T06:43:19.430Z,21.60
2018-06-27T06:45:49.057Z,22.00
2018-06-27T06:48:19.531Z,21.80
2018-06-27T06:50:49.136Z,22.10
2018-06-27T06:53:20.026Z,22.20
2018-06-27T06:55:49.880Z,22.50
2018-06-27T06:58:20.062Z,22.80
2018-06-27T07:00:49.722Z,22.70
2018-06-27T07:03:19.962Z,22.80
2018-06-27T07:05:49.775Z,22.80
2018-06-27T07:08:20.180Z,22.90
2018-06-27T07:10:51.773Z,22.90
2018-06-27T07:13:21.817Z,22.90
2018-06-27T07:15:51.486Z,22.40
2018-06-27T07:18:21.780Z,21.90
2018-06-27T07:20:51.451Z,22.20
2018-06-27T07:23:22.051Z,22.40
2018-06-27T07:25:51.696Z,22.40
2018-06-27T07:28:22.262Z,22.30
2018-06-27T07:30:51.968Z,22.00
2018-06-27T07:33:22.315Z,22.10
2018-06-27T07:35:51.945Z,22.50
2018-06-27T07:38:22.488Z,22.80
2018-06-27T07:40:52.609Z,23.10
2018-06-27T07:43:23.313Z,23.00
2018-06-27T07:45:52.919Z,22.50
2018-06-27T07:48:23.732Z,22.70
2018-06-27T07:50:53.399Z,23.10
2018-06-27T07:53:23.868Z,23.40
2018-06-27T07:55:53.511Z,23.80
2018-06-27T07:58:24.209Z,24.00
2018-06-27T08:00:53.905Z,24.10
2018-06-27T08:03:24.422Z,23.80
2018-06-27T08:05:54.119Z,23.80
2018-06-27T08:08:24.252Z,24.10
2018-06-27T08:10:53.865Z,24.10
2018-06-27T08:13:24.447Z,23.80
2018-06-27T08:15:54.081Z,24.00
2018-06-27T08:20:53.956Z,23.80
2018-06-27T08:23:24.595Z,24.10
2018-06-27T08:25:54.223Z,24.30
2018-06-27T08:28:24.952Z,24.10
2018-06-27T08:30:54.528Z,23.80
2018-06-27T08:33:24.988Z,23.30
2018-06-27T08:35:54.650Z,23.60
2018-06-27T08:38:24.947Z,23.80
2018-06-27T08:40:54.603Z,23.90
2018-06-27T08:43:25.161Z,24.50
2018-06-27T08:45:54.972Z,24.80
2018-06-27T08:48:25.457Z,24.80
2018-06-27T08:50:55.707Z,24.60
2018-06-27T08:53:26.508Z,24.40
2018-06-27T08:55:56.137Z,24.50
2018-06-27T08:58:26.671Z,24.50
2018-06-27T09:00:56.288Z,24.70
2018-06-27T09:03:26.889Z,24.70
2018-06-27T09:05:56.486Z,24.70
2018-06-27T09:08:26.937Z,24.10
2018-06-27T09:10:56.477Z,24.00
2018-06-27T09:15:56.223Z,23.90
2018-06-27T09:18:26.404Z,24.10
2018-06-27T09:20:55.987Z,24.10
2018-06-27T09:23:26.214Z,23.80
2018-06-27T09:25:55.823Z,23.60
2018-06-27T09:28:26.069Z,23.50
2018-06-27T09:30:55.685Z,23.20
2018-06-27T09:33:25.595Z,23.60
2018-06-27T09:35:55.161Z,23.70
2018-06-27T09:38:25.060Z,23.80
2018-06-27T09:40:54.754Z,23.80
2018-06-27T09:43:24.484Z,23.70
2018-06-27T09:45:54.222Z,23.50
2018-06-27T09:48:23.829Z,23.60
2018-06-27T09:50:53.457Z,23.70
2018-06-27T09:55:52.407Z,23.90
2018-06-27T09:58:21.979Z,24.10
2018-06-27T10:03:20.834Z,24.00
2018-06-27T10:05:50.424Z,23.70
2018-06-27T10:08:20.043Z,23.80
2018-06-27T10:10:50.059Z,24.10
2018-06-27T10:13:19.649Z,24.40
2018-06-27T10:15:49.250Z,24.40
2018-06-27T10:18:18.890Z,24.10
2018-06-27T10:20:48.488Z,23.90
2018-06-27T10:23:18.091Z,23.70
2018-06-27T10:25:48.425Z,23.70
2018-06-27T10:28:18.006Z,23.60
2018-06-27T10:30:50.158Z,24.10
2018-06-27T10:33:19.790Z,24.30
2018-06-27T10:35:49.364Z,24.40
2018-06-27T10:38:19.020Z,24.90
2018-06-27T10:40:49.384Z,25.10
2018-06-27T10:45:48.302Z,25.30
2018-06-27T10:48:17.932Z,25.00
2018-06-27T10:50:47.529Z,25.10
2018-06-27T10:53:17.191Z,25.20
2018-06-27T10:55:47.676Z,25.20
2018-06-27T10:58:17.266Z,25.00
2018-06-27T11:00:46.869Z,25.20
2018-06-27T11:03:16.490Z,25.10
2018-06-27T11:05:46.058Z,25.30
2018-06-27T11:08:15.636Z,25.60
2018-06-27T11:10:46.075Z,25.40
2018-06-27T11:13:15.649Z,25.30
2018-06-27T11:15:45.340Z,25.30
2018-06-27T11:18:14.981Z,25.60
2018-06-27T11:20:44.675Z,25.70
2018-06-27T11:23:14.460Z,26.00
2018-06-27T11:25:45.307Z,25.90
2018-06-27T11:28:14.919Z,26.00
2018-06-27T11:30:45.106Z,25.80
2018-06-27T11:33:14.752Z,25.60
2018-06-27T11:35:44.339Z,25.70
2018-06-27T11:38:13.913Z,25.20
2018-06-27T11:40:44.233Z,25.40
2018-06-27T11:43:13.875Z,25.20
2018-06-27T11:45:44.397Z,25.00
2018-06-27T11:48:14.025Z,24.70
2018-06-27T11:50:43.721Z,24.60
2018-06-27T11:53:13.484Z,24.70
2018-06-27T11:55:43.840Z,24.80
2018-06-27T11:58:13.471Z,25.40
2018-06-27T12:00:43.744Z,25.90
2018-06-27T12:03:13.364Z,26.10
2018-06-27T12:05:42.972Z,25.80
2018-06-27T12:08:12.573Z,26.00
2018-06-27T12:10:42.316Z,26.60
2018-06-27T12:13:11.922Z,26.60
2018-06-27T12:15:42.615Z,26.20
2018-06-27T12:18:12.271Z,26.10
2018-06-27T12:20:41.858Z,25.80
2018-06-27T12:23:11.483Z,25.50
2018-06-27T12:25:41.300Z,25.20
2018-06-27T12:28:10.937Z,25.10
2018-06-27T12:30:42.027Z,25.30
2018-06-27T12:33:11.736Z,25.50
2018-06-27T12:35:41.400Z,25.50
2018-06-27T12:38:11.088Z,25.50
2018-06-27T12:40:40.676Z,25.10
2018-06-27T12:43:10.366Z,25.10
2018-06-27T12:45:41.600Z,25.00
2018-06-27T12:48:11.215Z,24.80
2018-06-27T12:50:40.822Z,24.40
2018-06-27T12:53:10.404Z,24.50
2018-06-27T12:55:40.153Z,24.40
2018-06-27T12:58:09.745Z,24.60
2018-06-27T13:00:40.715Z,25.10
2018-06-27T13:03:10.340Z,25.70
2018-06-27T13:05:39.988Z,25.70
2018-06-27T13:08:09.618Z,25.20
2018-06-27T13:10:39.711Z,24.70
2018-06-27T13:13:09.305Z,24.30
2018-06-27T13:15:41.038Z,24.20
2018-06-27T13:18:10.629Z,24.20
2018-06-27T13:20:40.677Z,24.10
2018-06-27T13:23:10.336Z,24.00
2018-06-27T13:25:41.099Z,24.40
2018-06-27T13:28:10.971Z,24.60
2018-06-27T13:30:43.245Z,25.10
2018-06-27T13:33:12.918Z,25.20
2018-06-27T13:35:42.833Z,25.20
2018-06-27T13:38:12.483Z,25.20
2018-06-27T13:40:42.414Z,25.50
2018-06-27T13:43:12.033Z,25.70
2018-06-27T13:45:43.803Z,26.10
2018-06-27T13:48:13.376Z,26.70
2018-06-27T13:50:43.206Z,27.00
2018-06-27T13:53:12.982Z,27.10
2018-06-27T13:55:43.423Z,27.30
2018-06-27T13:58:13.072Z,27.60
2018-06-27T14:00:44.474Z,28.00
2018-06-27T14:03:14.112Z,28.00
2018-06-27T14:05:44.081Z,28.20
2018-06-27T14:08:13.678Z,28.00
2018-06-27T14:10:44.362Z,27.00
2018-06-27T14:13:13.969Z,27.10
2018-06-27T14:15:45.255Z,27.30
2018-06-27T14:18:14.882Z,27.60
2018-06-27T14:20:44.695Z,27.80
2018-06-27T14:23:14.294Z,27.50
2018-06-27T14:25:44.532Z,26.90
2018-06-27T14:28:14.130Z,26.60
2018-06-27T14:30:45.721Z,26.30
2018-06-27T14:33:15.365Z,25.80
2018-06-27T14:35:45.241Z,25.40
2018-06-27T14:38:14.837Z,25.30
2018-06-27T14:40:45.583Z,25.10
2018-06-27T14:43:15.394Z,24.90
2018-06-27T14:45:46.065Z,25.40
2018-06-27T14:48:15.773Z,25.80
2018-06-27T14:50:45.989Z,25.80
2018-06-27T14:53:15.578Z,25.80
2018-06-27T14:55:46.537Z,26.00
2018-06-27T14:58:16.194Z,26.20
2018-06-27T15:00:53.989Z,26.10
2018-06-27T15:03:23.785Z,25.90
2018-06-27T15:05:53.541Z,25.60
2018-06-27T15:08:23.368Z,25.30
2018-06-27T15:10:53.383Z,25.20
2018-06-27T15:13:23.011Z,25.00
2018-06-27T15:15:52.653Z,24.70
2018-06-27T15:18:22.522Z,24.60
2018-06-27T15:20:52.415Z,24.50
2018-06-27T15:23:22.096Z,24.50
2018-06-27T15:25:52.216Z,24.40
2018-06-27T15:28:21.849Z,24.70
2018-06-27T15:30:51.616Z,25.10
2018-06-27T15:33:21.353Z,25.60
2018-06-27T15:35:51.335Z,26.20
2018-06-27T15:38:21.618Z,26.40
2018-06-27T15:40:52.120Z,26.60
2018-06-27T15:43:22.147Z,26.00
2018-06-27T15:45:52.267Z,25.50
2018-06-27T15:48:22.167Z,25.40
2018-06-27T15:50:52.239Z,25.70
2018-06-27T15:53:22.147Z,25.90
2018-06-27T15:55:54.246Z,26.00
2018-06-27T15:58:24.341Z,25.90
2018-06-27T16:03:27.636Z,26.20
2018-06-27T16:05:58.044Z,26.20
2018-06-27T16:08:28.221Z,26.30
2018-06-27T16:10:58.056Z,26.20
2018-06-27T16:13:27.925Z,26.10
2018-06-27T16:15:57.853Z,26.00
2018-06-27T16:18:27.853Z,25.90
2018-06-27T16:20:58.122Z,25.90
2018-06-27T16:23:38.085Z,25.80
2018-06-27T16:26:08.158Z,25.70
2018-06-27T16:28:48.245Z,25.60
2018-06-27T16:33:48.802Z,25.60
2018-06-27T16:36:18.893Z,25.60
2018-06-27T16:38:49.685Z,25.50
2018-06-27T16:41:19.638Z,25.50
2018-06-27T16:43:50.405Z,25.50
2018-06-27T16:46:21.596Z,25.30
2018-06-27T16:48:52.009Z,25.30
2018-06-27T16:51:23.414Z,25.20
2018-06-27T16:53:53.396Z,25.10
2018-06-27T16:56:24.761Z,25.20
2018-06-27T16:58:55.324Z,25.00
2018-06-27T17:01:26.177Z,24.90
2018-06-27T17:03:56.449Z,24.80
2018-06-27T17:06:26.702Z,24.80
2018-06-27T17:08:56.566Z,24.80
2018-06-27T17:11:26.381Z,24.80
2018-06-27T17:13:57.948Z,24.90
2018-06-27T17:16:27.703Z,24.80
2018-06-27T17:18:57.837Z,24.80
2018-06-27T17:21:29.577Z,24.90
2018-06-27T17:23:59.538Z,24.90
2018-06-27T17:26:29.592Z,25.00
2018-06-27T17:28:59.410Z,25.00
2018-06-27T17:31:29.728Z,25.10
2018-06-27T17:33:59.729Z,25.00
2018-06-27T17:38:59.512Z,24.70
2018-06-27T17:41:29.763Z,24.50
2018-06-27T17:43:59.748Z,24.40
2018-06-27T17:46:29.533Z,24.30
2018-06-27T17:48:59.365Z,24.20
2018-06-27T17:51:29.795Z,24.20
2018-06-27T17:54:00.090Z,24.20
2018-06-27T17:56:30.070Z,24.10
2018-06-27T17:59:00.014Z,24.00
2018-06-27T18:01:29.748Z,23.90
2018-06-27T18:03:59.388Z,23.80
2018-06-27T18:06:29.079Z,23.70
2018-06-27T18:08:58.841Z,23.60
2018-06-27T18:11:28.470Z,23.60
2018-06-27T18:13:58.160Z,23.50
2018-06-27T18:16:27.949Z,23.30
2018-06-27T18:18:57.825Z,23.30
2018-06-27T18:21:28.219Z,23.20
2018-06-27T18:23:58.103Z,23.10
2018-06-27T18:26:28.073Z,23.00
2018-06-27T18:28:57.953Z,23.10
2018-06-27T18:31:27.754Z,23.00
2018-06-27T18:34:10.085Z,22.90
2018-06-27T18:36:43.605Z,22.80
2018-06-27T18:39:27.474Z,22.80
2018-06-27T18:41:58.906Z,22.80
2018-06-27T18:44:31.399Z,22.70
2018-06-27T18:47:01.678Z,22.70
2018-06-27T18:49:33.130Z,22.70
2018-06-27T18:52:03.276Z,22.60
2018-06-27T18:54:33.306Z,22.50
2018-06-27T18:57:03.557Z,22.50
2018-06-27T18:59:33.588Z,22.50
2018-06-27T19:02:03.696Z,22.50
2018-06-27T19:04:33.820Z,22.50
2018-06-27T19:07:04.953Z,22.40
2018-06-27T19:09:36.155Z,22.30
2018-06-27T19:12:06.645Z,22.30
2018-06-27T19:14:36.766Z,22.20
2018-06-27T19:17:10.031Z,22.10
2018-06-27T19:19:40.171Z,22.00
2018-06-27T19:22:19.995Z,22.00
2018-06-27T19:24:51.188Z,21.90
2018-06-27T19:27:21.231Z,21.90
2018-06-27T19:29:51.311Z,21.80
2018-06-27T19:32:21.254Z,21.70
2018-06-27T19:34:51.648Z,21.70
2018-06-27T19:37:21.644Z,21.70
2018-06-27T19:39:51.846Z,21.70
2018-06-27T19:42:21.831Z,21.70
2018-06-27T19:44:51.840Z,21.60
2018-06-27T19:47:22.000Z,21.50
2018-06-27T19:49:52.391Z,21.50
2018-06-27T19:52:22.282Z,21.50
2018-06-27T19:54:52.156Z,21.50
2018-06-27T19:57:22.165Z,21.40
2018-06-27T19:59:52.181Z,21.20
2018-06-27T20:02:22.504Z,21.20
2018-06-27T20:04:53.596Z,21.10
2018-06-27T20:07:23.978Z,21.00
2018-06-27T20:09:53.865Z,20.90
2018-06-27T20:12:23.917Z,20.90
2018-06-27T20:14:53.842Z,20.80
2018-06-27T20:17:23.507Z,20.60
2018-06-27T20:19:54.751Z,20.60
2018-06-27T20:22:24.758Z,20.60
2018-06-27T20:24:54.744Z,20.50
2018-06-27T20:27:24.615Z,20.50
2018-06-27T20:29:54.328Z,20.40
2018-06-27T20:32:24.321Z,20.30
2018-06-27T20:34:54.964Z,20.30
2018-06-27T20:37:25.040Z,20.30
2018-06-27T20:39:55.022Z,20.20
2018-06-27T20:42:24.877Z,20.10
2018-06-27T20:44:54.556Z,20.00
2018-06-27T20:47:24.252Z,20.00
2018-06-27T20:49:54.378Z,19.90
2018-06-27T20:52:24.081Z,19.90
2018-06-27T20:54:53.767Z,19.80
2018-06-27T20:57:23.783Z,19.80
2018-06-27T20:59:53.843Z,19.70
2018-06-27T21:02:23.879Z,19.70
2018-06-27T21:04:54.146Z,19.60
2018-06-27T21:07:23.937Z,19.60
2018-06-27T21:09:53.550Z,19.60
2018-06-27T21:12:23.417Z,19.70
2018-06-27T21:14:53.571Z,19.70
2018-06-27T21:17:23.423Z,19.60
2018-06-27T21:19:53.759Z,19.60
2018-06-27T21:22:23.448Z,19.50
2018-06-27T21:24:53.112Z,19.50
2018-06-27T21:27:22.746Z,19.50
2018-06-27T21:29:52.425Z,19.40
2018-06-27T21:32:22.033Z,19.40
2018-06-27T21:34:52.153Z,19.40
2018-06-27T21:37:21.749Z,19.40
2018-06-27T21:39:51.344Z,19.40
2018-06-27T21:42:21.027Z,19.30
2018-06-27T21:44:50.691Z,19.30
2018-06-27T21:47:20.501Z,19.40
2018-06-27T21:49:51.210Z,19.40
2018-06-27T21:52:20.802Z,19.30
2018-06-27T21:54:50.446Z,19.30
2018-06-27T21:57:20.084Z,19.20
2018-06-27T21:59:49.770Z,19.10
2018-06-27T22:02:19.367Z,19.00
2018-06-27T22:04:51.372Z,19.00
2018-06-27T22:07:21.039Z,19.00
2018-06-27T22:09:50.695Z,18.90
2018-06-27T22:12:20.304Z,18.80
2018-06-27T22:14:49.936Z,18.80
2018-06-27T22:17:19.543Z,18.70
2018-06-27T22:19:50.305Z,18.70
2018-06-27T22:22:19.884Z,18.60
2018-06-27T22:24:49.517Z,18.60
2018-06-27T22:27:19.145Z,18.50
2018-06-27T22:29:48.833Z,18.50
2018-06-27T22:32:18.461Z,18.50
2018-06-27T22:34:48.976Z,18.40
2018-06-27T22:37:18.686Z,18.40
2018-06-27T22:39:48.367Z,18.30
2018-06-27T22:42:17.996Z,18.30
2018-06-27T22:44:47.732Z,18.20
2018-06-27T22:49:47.903Z,18.10
2018-06-27T22:52:17.609Z,18.00
2018-06-27T22:54:47.240Z,18.00
2018-06-27T22:57:16.888Z,17.90
2018-06-27T22:59:46.488Z,17.90
2018-06-27T23:02:16.278Z,17.90
2018-06-27T23:04:46.818Z,17.80
2018-06-27T23:07:16.450Z,17.80
2018-06-27T23:09:46.089Z,17.70
2018-06-27T23:12:16.200Z,17.70
2018-06-27T23:14:45.820Z,17.70
2018-06-27T23:17:15.969Z,17.60
2018-06-27T23:19:45.948Z,17.60
2018-06-27T23:22:32.296Z,17.60
2018-06-27T23:25:01.906Z,17.50
2018-06-27T23:30:01.067Z,17.50
2018-06-27T23:32:30.688Z,17.40
2018-06-27T23:35:00.391Z,17.40
2018-06-27T23:37:30.004Z,17.30
2018-06-27T23:39:59.738Z,17.30
2018-06-27T23:42:29.478Z,17.30
2018-06-27T23:44:59.057Z,17.30
2018-06-27T23:47:28.742Z,17.20
2018-06-27T23:49:58.367Z,17.20
2018-06-27T23:52:28.315Z,17.10
2018-06-27T23:54:58.703Z,17.10
2018-06-27T23:57:28.408Z,17.10
2018-06-27T23:59:58.035Z,17.10
